Hlavní strana
METAR-TAF:

METAR-TAF

Letiště :

Terst, Itálie

zeměpisná šířka: 45-39N, zeměpisná délka: 013-45E, výška: 8 m

Aktuální stav počasí

Zpráva byla vytvořena před 1 hodinou a 12 minutami, v 15:55 UTC
Severovýchodní vítr 9 kt s nárazy do 19 kt
Teplota 7°C
Vlhkost vzduchu 49%
Tlak 1020 hPa
Viditelnost 10 km a více
Žádná oblačnost pod 1500 m, nevyskytují se cumulonimby.

METAR: LIVT 171555Z 05009G19KT CAVOK 07/M03 Q1020 RMK SCT SCT160 QUK / QUL / VIS MAR 20 KM VIS MIN 9999

Čas: 18:07 (17:07 UTC)


TAF: chybějící

Stav a předpovědi počasí z více než 4 000 letišť (zprávy METAR a TAF).

Červené a žluté tečky na mapě představují dostupné meteorologické stanice.

Když kurzor umístíte na tečku, zobrazí se název stanice.

Pak kliknutím zobrazíte stav a předpověď počasí.

Chcete-li změnit mapu, kliknutím na zelené tlačítko se znaménkem +mapu přiblížíte, kliknutím na zelené tlačítko se znaménkem – mapu oddálíte a kliknutím na zelené šipky přejdete na sousední mapy.


METAR-TAF: